sensor_id;sensor_type;location;lat;lon;timestamp;P1;durP1;ratioP1;P2;durP2;ratioP2
3627;SDS011;1830;49.000;12.074;2023-04-24T00:00:12;9.47;;;5.63;;
3627;SDS011;1830;49.000;12.074;2023-04-24T00:02:40;10.97;;;5.60;;
3627;SDS011;1830;49.000;12.074;2023-04-24T00:05:11;7.03;;;6.33;;
3627;SDS011;1830;49.000;12.074;2023-04-24T00:07:38;12.17;;;7.30;;
3627;SDS011;1830;49.000;12.074;2023-04-24T00:10:06;9.53;;;7.10;;
3627;SDS011;1830;49.000;12.074;2023-04-24T00:12:33;7.17;;;6.43;;
3627;SDS011;1830;49.000;12.074;2023-04-24T00:15:02;10.30;;;7.23;;
3627;SDS011;1830;49.000;12.074;2023-04-24T00:17:29;9.80;;;7.17;;
3627;SDS011;1830;49.000;12.074;2023-04-24T00:19:56;11.00;;;8.07;;
3627;SDS011;1830;49.000;12.074;2023-04-24T00:22:24;8.40;;;7.50;;
3627;SDS011;1830;49.000;12.074;2023-04-24T00:24:51;7.93;;;7.20;;
3627;SDS011;1830;49.000;12.074;2023-04-24T00:27:17;17.93;;;8.43;;
3627;SDS011;1830;49.000;12.074;2023-04-24T00:29:44;10.17;;;7.90;;
3627;SDS011;1830;49.000;12.074;2023-04-24T00:32:12;8.90;;;7.40;;
3627;SDS011;1830;49.000;12.074;2023-04-24T00:34:40;13.07;;;8.60;;
3627;SDS011;1830;49.000;12.074;2023-04-24T00:37:07;9.63;;;7.90;;
3627;SDS011;1830;49.000;12.074;2023-04-24T00:39:33;8.80;;;8.10;;
3627;SDS011;1830;49.000;12.074;2023-04-24T00:42:00;9.23;;;8.33;;
3627;SDS011;1830;49.000;12.074;2023-04-24T00:44:27;9.50;;;8.60;;
3627;SDS011;1830;49.000;12.074;2023-04-24T00:46:54;10.03;;;8.33;;
3627;SDS011;1830;49.000;12.074;2023-04-24T00:49:22;9.97;;;9.07;;
3627;SDS011;1830;49.000;12.074;2023-04-24T00:51:50;9.57;;;8.67;;
3627;SDS011;1830;49.000;12.074;2023-04-24T00:54:17;13.33;;;9.30;;
3627;SDS011;1830;49.000;12.074;2023-04-24T00:56:44;10.70;;;9.53;;
3627;SDS011;1830;49.000;12.074;2023-04-24T00:59:11;11.00;;;9.90;;
3627;SDS011;1830;49.000;12.074;2023-04-24T01:01:39;11.13;;;9.93;;
3627;SDS011;1830;49.000;12.074;2023-04-24T01:04:07;14.43;;;10.07;;
3627;SDS011;1830;49.000;12.074;2023-04-24T01:06:37;13.20;;;11.50;;
3627;SDS011;1830;49.000;12.074;2023-04-24T01:09:05;12.03;;;10.87;;
3627;SDS011;1830;49.000;12.074;2023-04-24T01:11:34;11.97;;;10.77;;
3627;SDS011;1830;49.000;12.074;2023-04-24T01:14:00;12.60;;;11.30;;
3627;SDS011;1830;49.000;12.074;2023-04-24T01:16:27;11.93;;;10.73;;
3627;SDS011;1830;49.000;12.074;2023-04-24T01:18:55;13.17;;;11.27;;
3627;SDS011;1830;49.000;12.074;2023-04-24T01:21:21;12.40;;;10.83;;
3627;SDS011;1830;49.000;12.074;2023-04-24T01:23:54;12.77;;;11.57;;
3627;SDS011;1830;49.000;12.074;2023-04-24T01:26:21;15.90;;;12.47;;
3627;SDS011;1830;49.000;12.074;2023-04-24T01:28:50;15.10;;;13.50;;
3627;SDS011;1830;49.000;12.074;2023-04-24T01:31:17;19.40;;;12.00;;
3627;SDS011;1830;49.000;12.074;2023-04-24T01:33:44;19.30;;;13.57;;
3627;SDS011;1830;49.000;12.074;2023-04-24T01:36:11;17.03;;;15.10;;
3627;SDS011;1830;49.000;12.074;2023-04-24T01:38:39;17.40;;;14.50;;
3627;SDS011;1830;49.000;12.074;2023-04-24T01:41:07;21.23;;;15.30;;
3627;SDS011;1830;49.000;12.074;2023-04-24T01:43:34;21.03;;;15.77;;
3627;SDS011;1830;49.000;12.074;2023-04-24T01:46:01;16.60;;;14.83;;
3627;SDS011;1830;49.000;12.074;2023-04-24T01:48:28;19.93;;;15.43;;
3627;SDS011;1830;49.000;12.074;2023-04-24T01:50:55;16.57;;;14.77;;
3627;SDS011;1830;49.000;12.074;2023-04-24T01:53:23;18.53;;;14.50;;
3627;SDS011;1830;49.000;12.074;2023-04-24T01:55:50;19.43;;;15.77;;
3627;SDS011;1830;49.000;12.074;2023-04-24T01:58:18;17.77;;;15.13;;
3627;SDS011;1830;49.000;12.074;2023-04-24T02:00:45;22.13;;;16.27;;
3627;SDS011;1830;49.000;12.074;2023-04-24T02:03:11;16.93;;;15.17;;
3627;SDS011;1830;49.000;12.074;2023-04-24T02:05:38;18.57;;;15.70;;
3627;SDS011;1830;49.000;12.074;2023-04-24T02:08:05;24.10;;;15.23;;
3627;SDS011;1830;49.000;12.074;2023-04-24T02:10:31;17.53;;;14.43;;
3627;SDS011;1830;49.000;12.074;2023-04-24T02:12:58;15.53;;;13.93;;
3627;SDS011;1830;49.000;12.074;2023-04-24T02:15:27;24.03;;;15.20;;
3627;SDS011;1830;49.000;12.074;2023-04-24T02:17:53;14.73;;;13.20;;
3627;SDS011;1830;49.000;12.074;2023-04-24T02:20:20;16.83;;;13.90;;
3627;SDS011;1830;49.000;12.074;2023-04-24T02:22:47;14.27;;;12.50;;
3627;SDS011;1830;49.000;12.074;2023-04-24T02:25:14;12.53;;;11.20;;
3627;SDS011;1830;49.000;12.074;2023-04-24T02:27:40;16.47;;;11.27;;
3627;SDS011;1830;49.000;12.074;2023-04-24T02:30:08;15.90;;;11.60;;
3627;SDS011;1830;49.000;12.074;2023-04-24T02:32:36;13.20;;;11.90;;
3627;SDS011;1830;49.000;12.074;2023-04-24T02:35:04;14.93;;;11.50;;
3627;SDS011;1830;49.000;12.074;2023-04-24T02:37:31;16.60;;;11.77;;
3627;SDS011;1830;49.000;12.074;2023-04-24T02:39:58;13.10;;;10.73;;
3627;SDS011;1830;49.000;12.074;2023-04-24T02:42:25;12.03;;;10.90;;
3627;SDS011;1830;49.000;12.074;2023-04-24T02:44:52;11.87;;;10.70;;
3627;SDS011;1830;49.000;12.074;2023-04-24T02:47:18;10.40;;;9.40;;
3627;SDS011;1830;49.000;12.074;2023-04-24T02:49:47;10.53;;;9.43;;
3627;SDS011;1830;49.000;12.074;2023-04-24T02:52:13;12.43;;;10.13;;
3627;SDS011;1830;49.000;12.074;2023-04-24T02:54:41;9.33;;;8.43;;
3627;SDS011;1830;49.000;12.074;2023-04-24T02:57:08;13.03;;;9.33;;
3627;SDS011;1830;49.000;12.074;2023-04-24T02:59:35;10.10;;;9.10;;
3627;SDS011;1830;49.000;12.074;2023-04-24T03:02:02;11.97;;;9.77;;
3627;SDS011;1830;49.000;12.074;2023-04-24T03:04:29;13.77;;;9.47;;
3627;SDS011;1830;49.000;12.074;2023-04-24T03:06:57;10.77;;;9.00;;
3627;SDS011;1830;49.000;12.074;2023-04-24T03:09:24;11.63;;;9.53;;
3627;SDS011;1830;49.000;12.074;2023-04-24T03:11:50;9.70;;;8.70;;
3627;SDS011;1830;49.000;12.074;2023-04-24T03:14:17;10.00;;;9.10;;
3627;SDS011;1830;49.000;12.074;2023-04-24T03:16:44;13.27;;;9.90;;
3627;SDS011;1830;49.000;12.074;2023-04-24T03:19:11;9.53;;;8.73;;
3627;SDS011;1830;49.000;12.074;2023-04-24T03:21:40;10.77;;;9.77;;
3627;SDS011;1830;49.000;12.074;2023-04-24T03:24:09;20.13;;;10.37;;
3627;SDS011;1830;49.000;12.074;2023-04-24T03:26:37;10.70;;;9.60;;
3627;SDS011;1830;49.000;12.074;2023-04-24T03:29:04;11.17;;;10.07;;
3627;SDS011;1830;49.000;12.074;2023-04-24T03:31:31;10.20;;;9.17;;
3627;SDS011;1830;49.000;12.074;2023-04-24T03:33:57;10.17;;;9.27;;
3627;SDS011;1830;49.000;12.074;2023-04-24T03:36:24;10.67;;;9.57;;
3627;SDS011;1830;49.000;12.074;2023-04-24T03:38:51;11.73;;;9.10;;
3627;SDS011;1830;49.000;12.074;2023-04-24T03:41:19;9.83;;;9.03;;
3627;SDS011;1830;49.000;12.074;2023-04-24T03:43:47;10.33;;;9.43;;
3627;SDS011;1830;49.000;12.074;2023-04-24T03:46:14;11.00;;;9.93;;
3627;SDS011;1830;49.000;12.074;2023-04-24T03:48:41;12.90;;;10.30;;
3627;SDS011;1830;49.000;12.074;2023-04-24T03:51:10;10.87;;;9.67;;
3627;SDS011;1830;49.000;12.074;2023-04-24T03:53:39;11.20;;;9.57;;
3627;SDS011;1830;49.000;12.074;2023-04-24T03:56:06;12.90;;;9.90;;
3627;SDS011;1830;49.000;12.074;2023-04-24T03:58:34;11.37;;;10.17;;
3627;SDS011;1830;49.000;12.074;2023-04-24T04:01:03;10.43;;;8.93;;
3627;SDS011;1830;49.000;12.074;2023-04-24T04:03:30;10.40;;;9.40;;
3627;SDS011;1830;49.000;12.074;2023-04-24T04:05:57;11.03;;;9.50;;
3627;SDS011;1830;49.000;12.074;2023-04-24T04:08:24;10.67;;;9.57;;
3627;SDS011;1830;49.000;12.074;2023-04-24T04:10:50;19.53;;;9.53;;
3627;SDS011;1830;49.000;12.074;2023-04-24T04:13:17;10.50;;;9.50;;
3627;SDS011;1830;49.000;12.074;2023-04-24T04:15:45;10.27;;;9.33;;
3627;SDS011;1830;49.000;12.074;2023-04-24T04:18:12;10.80;;;9.70;;
3627;SDS011;1830;49.000;12.074;2023-04-24T04:20:40;9.80;;;8.90;;
3627;SDS011;1830;49.000;12.074;2023-04-24T04:23:06;10.80;;;9.80;;
3627;SDS011;1830;49.000;12.074;2023-04-24T04:25:33;13.33;;;10.53;;
3627;SDS011;1830;49.000;12.074;2023-04-24T04:28:00;10.60;;;9.60;;
3627;SDS011;1830;49.000;12.074;2023-04-24T04:30:27;16.10;;;14.40;;
3627;SDS011;1830;49.000;12.074;2023-04-24T04:32:58;12.60;;;10.57;;
3627;SDS011;1830;49.000;12.074;2023-04-24T04:35:25;10.30;;;9.30;;
3627;SDS011;1830;49.000;12.074;2023-04-24T04:37:52;11.17;;;9.47;;
3627;SDS011;1830;49.000;12.074;2023-04-24T04:40:19;10.70;;;9.70;;
3627;SDS011;1830;49.000;12.074;2023-04-24T04:42:46;10.43;;;9.00;;
3627;SDS011;1830;49.000;12.074;2023-04-24T04:45:12;9.90;;;9.00;;
3627;SDS011;1830;49.000;12.074;2023-04-24T04:47:41;10.30;;;9.00;;
3627;SDS011;1830;49.000;12.074;2023-04-24T04:50:10;10.30;;;8.53;;
3627;SDS011;1830;49.000;12.074;2023-04-24T04:52:37;8.97;;;8.00;;
3627;SDS011;1830;49.000;12.074;2023-04-24T04:55:05;8.57;;;7.77;;
3627;SDS011;1830;49.000;12.074;2023-04-24T04:57:32;9.47;;;8.50;;
3627;SDS011;1830;49.000;12.074;2023-04-24T04:59:59;12.70;;;8.47;;
3627;SDS011;1830;49.000;12.074;2023-04-24T05:02:26;10.03;;;7.90;;
3627;SDS011;1830;49.000;12.074;2023-04-24T05:04:53;9.27;;;7.80;;
3627;SDS011;1830;49.000;12.074;2023-04-24T05:07:21;11.50;;;7.97;;
3627;SDS011;1830;49.000;12.074;2023-04-24T05:09:48;8.63;;;7.73;;
3627;SDS011;1830;49.000;12.074;2023-04-24T05:12:16;9.23;;;6.87;;
3627;SDS011;1830;49.000;12.074;2023-04-24T05:14:43;8.57;;;6.83;;
3627;SDS011;1830;49.000;12.074;2023-04-24T05:17:09;8.70;;;6.67;;
3627;SDS011;1830;49.000;12.074;2023-04-24T05:19:36;7.53;;;6.83;;
3627;SDS011;1830;49.000;12.074;2023-04-24T05:22:03;7.17;;;6.43;;
3627;SDS011;1830;49.000;12.074;2023-04-24T05:24:33;6.77;;;6.10;;
3627;SDS011;1830;49.000;12.074;2023-04-24T05:27:00;6.57;;;5.87;;
3627;SDS011;1830;49.000;12.074;2023-04-24T05:29:27;5.70;;;5.30;;
3627;SDS011;1830;49.000;12.074;2023-04-24T05:31:55;5.70;;;5.20;;
3627;SDS011;1830;49.000;12.074;2023-04-24T05:34:22;8.07;;;4.77;;
3627;SDS011;1830;49.000;12.074;2023-04-24T05:36:49;10.93;;;5.60;;
3627;SDS011;1830;49.000;12.074;2023-04-24T05:39:17;5.00;;;4.50;;
3627;SDS011;1830;49.000;12.074;2023-04-24T05:41:46;5.10;;;4.70;;
3627;SDS011;1830;49.000;12.074;2023-04-24T05:44:12;4.00;;;3.70;;
3627;SDS011;1830;49.000;12.074;2023-04-24T05:46:39;5.80;;;4.20;;
3627;SDS011;1830;49.000;12.074;2023-04-24T05:49:06;4.57;;;4.17;;
3627;SDS011;1830;49.000;12.074;2023-04-24T05:51:33;4.17;;;3.67;;
3627;SDS011;1830;49.000;12.074;2023-04-24T05:54:00;9.33;;;4.13;;
3627;SDS011;1830;49.000;12.074;2023-04-24T05:56:28;4.73;;;4.13;;
3627;SDS011;1830;49.000;12.074;2023-04-24T05:58:57;11.10;;;4.13;;
3627;SDS011;1830;49.000;12.074;2023-04-24T06:01:23;6.93;;;4.37;;
3627;SDS011;1830;49.000;12.074;2023-04-24T06:03:51;16.00;;;4.13;;
3627;SDS011;1830;49.000;12.074;2023-04-24T06:06:18;10.83;;;4.67;;
3627;SDS011;1830;49.000;12.074;2023-04-24T06:08:45;6.33;;;4.97;;
3627;SDS011;1830;49.000;12.074;2023-04-24T06:11:12;5.30;;;4.80;;
3627;SDS011;1830;49.000;12.074;2023-04-24T06:13:39;7.07;;;4.77;;
3627;SDS011;1830;49.000;12.074;2023-04-24T06:16:07;4.80;;;4.37;;
3627;SDS011;1830;49.000;12.074;2023-04-24T06:18:34;7.43;;;4.70;;
3627;SDS011;1830;49.000;12.074;2023-04-24T06:21:01;6.27;;;5.27;;
3627;SDS011;1830;49.000;12.074;2023-04-24T06:23:28;8.70;;;5.40;;
3627;SDS011;1830;49.000;12.074;2023-04-24T06:25:57;9.90;;;6.17;;
3627;SDS011;1830;49.000;12.074;2023-04-24T06:28:24;5.77;;;5.17;;
3627;SDS011;1830;49.000;12.074;2023-04-24T06:30:51;8.60;;;5.77;;
3627;SDS011;1830;49.000;12.074;2023-04-24T06:33:19;6.53;;;5.20;;
3627;SDS011;1830;49.000;12.074;2023-04-24T06:35:45;7.03;;;6.40;;
3627;SDS011;1830;49.000;12.074;2023-04-24T06:38:12;5.93;;;5.40;;
3627;SDS011;1830;49.000;12.074;2023-04-24T06:40:40;8.07;;;5.17;;
3627;SDS011;1830;49.000;12.074;2023-04-24T06:43:07;6.30;;;5.00;;
3627;SDS011;1830;49.000;12.074;2023-04-24T06:45:34;5.20;;;4.70;;
3627;SDS011;1830;49.000;12.074;2023-04-24T06:48:01;7.90;;;5.40;;
3627;SDS011;1830;49.000;12.074;2023-04-24T06:50:35;6.73;;;5.23;;
3627;SDS011;1830;49.000;12.074;2023-04-24T06:53:02;5.93;;;5.43;;
3627;SDS011;1830;49.000;12.074;2023-04-24T06:55:29;7.97;;;6.17;;
3627;SDS011;1830;49.000;12.074;2023-04-24T06:57:56;7.53;;;5.83;;
3627;SDS011;1830;49.000;12.074;2023-04-24T07:00:23;6.83;;;6.33;;
3627;SDS011;1830;49.000;12.074;2023-04-24T07:02:50;5.93;;;5.40;;
3627;SDS011;1830;49.000;12.074;2023-04-24T07:05:16;5.60;;;5.10;;
3627;SDS011;1830;49.000;12.074;2023-04-24T07:07:46;14.50;;;5.60;;
3627;SDS011;1830;49.000;12.074;2023-04-24T07:10:15;6.30;;;5.80;;
3627;SDS011;1830;49.000;12.074;2023-04-24T07:12:43;6.27;;;5.63;;
3627;SDS011;1830;49.000;12.074;2023-04-24T07:15:10;7.77;;;5.83;;
3627;SDS011;1830;49.000;12.074;2023-04-24T07:17:37;6.80;;;5.70;;
3627;SDS011;1830;49.000;12.074;2023-04-24T07:20:08;16.83;;;5.60;;
3627;SDS011;1830;49.000;12.074;2023-04-24T07:22:37;12.23;;;5.47;;
3627;SDS011;1830;49.000;12.074;2023-04-24T07:25:05;8.63;;;4.60;;
3627;SDS011;1830;49.000;12.074;2023-04-24T07:27:32;5.17;;;4.80;;
3627;SDS011;1830;49.000;12.074;2023-04-24T07:30:00;5.00;;;4.60;;
3627;SDS011;1830;49.000;12.074;2023-04-24T07:32:26;10.73;;;8.30;;
3627;SDS011;1830;49.000;12.074;2023-04-24T07:34:53;4.80;;;4.40;;
3627;SDS011;1830;49.000;12.074;2023-04-24T07:37:20;8.20;;;4.60;;
3627;SDS011;1830;49.000;12.074;2023-04-24T07:39:47;6.07;;;4.67;;
3627;SDS011;1830;49.000;12.074;2023-04-24T07:42:15;6.90;;;4.30;;
3627;SDS011;1830;49.000;12.074;2023-04-24T07:44:42;5.33;;;3.80;;
3627;SDS011;1830;49.000;12.074;2023-04-24T07:47:09;4.60;;;4.30;;
3627;SDS011;1830;49.000;12.074;2023-04-24T07:49:35;6.67;;;4.47;;
3627;SDS011;1830;49.000;12.074;2023-04-24T07:52:02;5.20;;;4.00;;
3627;SDS011;1830;49.000;12.074;2023-04-24T07:54:29;8.27;;;3.60;;
3627;SDS011;1830;49.000;12.074;2023-04-24T07:56:56;9.53;;;3.73;;
3627;SDS011;1830;49.000;12.074;2023-04-24T07:59:24;7.03;;;3.70;;
3627;SDS011;1830;49.000;12.074;2023-04-24T08:01:51;3.80;;;3.50;;
3627;SDS011;1830;49.000;12.074;2023-04-24T08:04:19;17.17;;;3.20;;
3627;SDS011;1830;49.000;12.074;2023-04-24T08:06:46;6.37;;;3.53;;
3627;SDS011;1830;49.000;12.074;2023-04-24T08:09:13;9.10;;;3.30;;
3627;SDS011;1830;49.000;12.074;2023-04-24T08:11:40;6.20;;;3.17;;
3627;SDS011;1830;49.000;12.074;2023-04-24T08:14:07;3.20;;;3.00;;
3627;SDS011;1830;49.000;12.074;2023-04-24T08:16:35;5.20;;;3.10;;
3627;SDS011;1830;49.000;12.074;2023-04-24T08:19:02;2.77;;;2.57;;
3627;SDS011;1830;49.000;12.074;2023-04-24T08:21:28;2.63;;;2.37;;
3627;SDS011;1830;49.000;12.074;2023-04-24T08:23:55;17.70;;;3.10;;
3627;SDS011;1830;49.000;12.074;2023-04-24T08:26:22;4.53;;;2.70;;
3627;SDS011;1830;49.000;12.074;2023-04-24T08:28:49;3.30;;;2.77;;
3627;SDS011;1830;49.000;12.074;2023-04-24T08:31:16;3.20;;;2.30;;
3627;SDS011;1830;49.000;12.074;2023-04-24T08:33:44;5.40;;;2.53;;
3627;SDS011;1830;49.000;12.074;2023-04-24T08:36:12;2.13;;;2.03;;
3627;SDS011;1830;49.000;12.074;2023-04-24T08:38:39;3.90;;;2.00;;
3627;SDS011;1830;49.000;12.074;2023-04-24T08:41:06;1.63;;;1.63;;
3627;SDS011;1830;49.000;12.074;2023-04-24T08:43:35;2.57;;;2.10;;
3627;SDS011;1830;49.000;12.074;2023-04-24T08:46:03;2.40;;;2.20;;
3627;SDS011;1830;49.000;12.074;2023-04-24T08:48:30;4.33;;;2.50;;
3627;SDS011;1830;49.000;12.074;2023-04-24T08:50:59;11.73;;;7.17;;
3627;SDS011;1830;49.000;12.074;2023-04-24T08:53:26;3.23;;;2.40;;
3627;SDS011;1830;49.000;12.074;2023-04-24T08:55:54;8.57;;;2.63;;
3627;SDS011;1830;49.000;12.074;2023-04-24T08:58:21;2.80;;;2.23;;
3627;SDS011;1830;49.000;12.074;2023-04-24T09:00:51;3.53;;;2.57;;
3627;SDS011;1830;49.000;12.074;2023-04-24T09:03:18;2.57;;;2.40;;
3627;SDS011;1830;49.000;12.074;2023-04-24T09:05:47;4.67;;;2.47;;
3627;SDS011;1830;49.000;12.074;2023-04-24T09:08:17;2.37;;;2.20;;
3627;SDS011;1830;49.000;12.074;2023-04-24T09:10:45;5.70;;;2.90;;
3627;SDS011;1830;49.000;12.074;2023-04-24T09:13:12;5.43;;;2.90;;
3627;SDS011;1830;49.000;12.074;2023-04-24T09:15:40;2.67;;;2.23;;
3627;SDS011;1830;49.000;12.074;2023-04-24T09:18:07;4.97;;;2.67;;
3627;SDS011;1830;49.000;12.074;2023-04-24T09:20:34;3.10;;;2.50;;
3627;SDS011;1830;49.000;12.074;2023-04-24T09:23:01;2.57;;;2.37;;
3627;SDS011;1830;49.000;12.074;2023-04-24T09:25:32;3.10;;;2.20;;
3627;SDS011;1830;49.000;12.074;2023-04-24T09:28:01;2.40;;;2.20;;
3627;SDS011;1830;49.000;12.074;2023-04-24T09:30:28;4.17;;;2.63;;
3627;SDS011;1830;49.000;12.074;2023-04-24T09:33:10;2.53;;;2.43;;
3627;SDS011;1830;49.000;12.074;2023-04-24T09:35:40;13.00;;;4.37;;
3627;SDS011;1830;49.000;12.074;2023-04-24T09:38:08;3.00;;;2.70;;
3627;SDS011;1830;49.000;12.074;2023-04-24T09:40:37;2.27;;;2.10;;
3627;SDS011;1830;49.000;12.074;2023-04-24T09:43:03;2.43;;;2.33;;
3627;SDS011;1830;49.000;12.074;2023-04-24T09:45:34;5.07;;;2.67;;
3627;SDS011;1830;49.000;12.074;2023-04-24T09:48:02;2.37;;;2.17;;
3627;SDS011;1830;49.000;12.074;2023-04-24T09:50:30;4.27;;;3.00;;
3627;SDS011;1830;49.000;12.074;2023-04-24T09:53:01;2.83;;;2.60;;
3627;SDS011;1830;49.000;12.074;2023-04-24T09:55:29;2.70;;;2.50;;
3627;SDS011;1830;49.000;12.074;2023-04-24T09:57:58;20.07;;;2.73;;
3627;SDS011;1830;49.000;12.074;2023-04-24T10:00:26;3.27;;;2.63;;
3627;SDS011;1830;49.000;12.074;2023-04-24T10:02:55;3.97;;;2.23;;
3627;SDS011;1830;49.000;12.074;2023-04-24T10:05:23;2.50;;;2.40;;
3627;SDS011;1830;49.000;12.074;2023-04-24T10:07:51;8.53;;;2.20;;
3627;SDS011;1830;49.000;12.074;2023-04-24T10:10:22;4.57;;;2.70;;
3627;SDS011;1830;49.000;12.074;2023-04-24T10:12:49;3.70;;;2.57;;
3627;SDS011;1830;49.000;12.074;2023-04-24T10:15:19;2.67;;;2.17;;
3627;SDS011;1830;49.000;12.074;2023-04-24T10:17:46;3.73;;;3.43;;
3627;SDS011;1830;49.000;12.074;2023-04-24T10:20:17;7.23;;;3.47;;
3627;SDS011;1830;49.000;12.074;2023-04-24T10:22:57;3.13;;;2.90;;
3627;SDS011;1830;49.000;12.074;2023-04-24T10:25:26;3.23;;;2.93;;
3627;SDS011;1830;49.000;12.074;2023-04-24T10:27:55;5.20;;;3.30;;
3627;SDS011;1830;49.000;12.074;2023-04-24T10:30:26;2.87;;;2.67;;
3627;SDS011;1830;49.000;12.074;2023-04-24T10:32:53;2.20;;;2.10;;
3627;SDS011;1830;49.000;12.074;2023-04-24T10:35:20;2.53;;;2.33;;
3627;SDS011;1830;49.000;12.074;2023-04-24T10:37:51;3.27;;;2.80;;
3627;SDS011;1830;49.000;12.074;2023-04-24T10:40:26;2.80;;;2.67;;
3627;SDS011;1830;49.000;12.074;2023-04-24T10:43:02;2.67;;;2.47;;
3627;SDS011;1830;49.000;12.074;2023-04-24T10:45:32;2.57;;;2.33;;
3627;SDS011;1830;49.000;12.074;2023-04-24T10:48:01;2.57;;;2.47;;
3627;SDS011;1830;49.000;12.074;2023-04-24T10:50:30;2.57;;;2.37;;
3627;SDS011;1830;49.000;12.074;2023-04-24T10:53:12;2.87;;;2.60;;
3627;SDS011;1830;49.000;12.074;2023-04-24T10:55:43;2.97;;;2.33;;
3627;SDS011;1830;49.000;12.074;2023-04-24T10:58:11;2.90;;;2.70;;
3627;SDS011;1830;49.000;12.074;2023-04-24T11:00:41;2.33;;;2.20;;
3627;SDS011;1830;49.000;12.074;2023-04-24T11:03:22;9.00;;;2.60;;
3627;SDS011;1830;49.000;12.074;2023-04-24T11:05:51;2.87;;;2.67;;
3627;SDS011;1830;49.000;12.074;2023-04-24T11:08:22;2.43;;;2.27;;
3627;SDS011;1830;49.000;12.074;2023-04-24T11:11:00;3.10;;;2.60;;
3627;SDS011;1830;49.000;12.074;2023-04-24T11:16:31;3.43;;;2.90;;
3627;SDS011;1830;49.000;12.074;2023-04-24T11:19:03;3.60;;;2.50;;
3627;SDS011;1830;49.000;12.074;2023-04-24T11:21:32;3.73;;;3.03;;
3627;SDS011;1830;49.000;12.074;2023-04-24T11:26:54;3.50;;;3.20;;
3627;SDS011;1830;49.000;12.074;2023-04-24T11:29:22;3.60;;;3.40;;
3627;SDS011;1830;49.000;12.074;2023-04-24T11:31:50;4.77;;;2.60;;
3627;SDS011;1830;49.000;12.074;2023-04-24T11:34:17;3.17;;;2.97;;
3627;SDS011;1830;49.000;12.074;2023-04-24T11:36:45;4.10;;;2.90;;
3627;SDS011;1830;49.000;12.074;2023-04-24T11:39:13;2.20;;;2.10;;
3627;SDS011;1830;49.000;12.074;2023-04-24T11:41:40;8.00;;;2.30;;
3627;SDS011;1830;49.000;12.074;2023-04-24T11:44:07;3.20;;;2.07;;
3627;SDS011;1830;49.000;12.074;2023-04-24T11:46:35;1.80;;;1.70;;
3627;SDS011;1830;49.000;12.074;2023-04-24T11:49:04;1.60;;;1.60;;
3627;SDS011;1830;49.000;12.074;2023-04-24T11:51:31;3.40;;;2.20;;
3627;SDS011;1830;49.000;12.074;2023-04-24T11:53:58;2.50;;;1.80;;
3627;SDS011;1830;49.000;12.074;2023-04-24T11:56:25;2.63;;;2.43;;
3627;SDS011;1830;49.000;12.074;2023-04-24T11:58:52;5.03;;;2.30;;
3627;SDS011;1830;49.000;12.074;2023-04-24T12:01:19;7.17;;;2.53;;
3627;SDS011;1830;49.000;12.074;2023-04-24T12:03:47;2.50;;;2.40;;
3627;SDS011;1830;49.000;12.074;2023-04-24T12:06:17;2.70;;;2.47;;
3627;SDS011;1830;49.000;12.074;2023-04-24T12:08:47;7.80;;;3.50;;
3627;SDS011;1830;49.000;12.074;2023-04-24T12:11:15;6.23;;;2.97;;
3627;SDS011;1830;49.000;12.074;2023-04-24T12:13:43;2.77;;;2.57;;
3627;SDS011;1830;49.000;12.074;2023-04-24T12:16:11;4.10;;;3.03;;
3627;SDS011;1830;49.000;12.074;2023-04-24T12:18:41;4.37;;;3.20;;
3627;SDS011;1830;49.000;12.074;2023-04-24T12:21:16;3.93;;;3.63;;
3627;SDS011;1830;49.000;12.074;2023-04-24T12:23:44;2.83;;;2.40;;
3627;SDS011;1830;49.000;12.074;2023-04-24T12:26:11;4.53;;;2.90;;
3627;SDS011;1830;49.000;12.074;2023-04-24T12:28:41;3.40;;;2.97;;
3627;SDS011;1830;49.000;12.074;2023-04-24T12:31:08;2.70;;;2.50;;
3627;SDS011;1830;49.000;12.074;2023-04-24T12:33:35;4.83;;;2.60;;
3627;SDS011;1830;49.000;12.074;2023-04-24T12:36:03;2.30;;;2.20;;
3627;SDS011;1830;49.000;12.074;2023-04-24T12:38:32;2.77;;;2.57;;
3627;SDS011;1830;49.000;12.074;2023-04-24T12:41:05;2.30;;;2.20;;
3627;SDS011;1830;49.000;12.074;2023-04-24T12:43:34;2.87;;;2.57;;
3627;SDS011;1830;49.000;12.074;2023-04-24T12:46:01;2.70;;;2.20;;
3627;SDS011;1830;49.000;12.074;2023-04-24T12:48:28;2.27;;;2.17;;
3627;SDS011;1830;49.000;12.074;2023-04-24T12:50:56;2.43;;;2.30;;
3627;SDS011;1830;49.000;12.074;2023-04-24T12:53:26;3.43;;;2.97;;
3627;SDS011;1830;49.000;12.074;2023-04-24T12:55:55;2.50;;;2.30;;
3627;SDS011;1830;49.000;12.074;2023-04-24T12:58:23;2.63;;;2.40;;
3627;SDS011;1830;49.000;12.074;2023-04-24T13:00:50;2.27;;;2.07;;
3627;SDS011;1830;49.000;12.074;2023-04-24T13:03:16;3.13;;;2.53;;
3627;SDS011;1830;49.000;12.074;2023-04-24T13:05:44;2.50;;;2.30;;
3627;SDS011;1830;49.000;12.074;2023-04-24T13:08:11;2.17;;;2.07;;
3627;SDS011;1830;49.000;12.074;2023-04-24T13:10:39;7.13;;;2.00;;
3627;SDS011;1830;49.000;12.074;2023-04-24T13:13:07;2.07;;;1.97;;
3627;SDS011;1830;49.000;12.074;2023-04-24T13:15:35;2.30;;;2.07;;
3627;SDS011;1830;49.000;12.074;2023-04-24T13:18:01;3.20;;;2.30;;
3627;SDS011;1830;49.000;12.074;2023-04-24T13:20:28;2.70;;;2.10;;
3627;SDS011;1830;49.000;12.074;2023-04-24T13:22:55;3.43;;;2.10;;
3627;SDS011;1830;49.000;12.074;2023-04-24T13:25:22;2.40;;;2.00;;
3627;SDS011;1830;49.000;12.074;2023-04-24T13:27:49;5.60;;;2.07;;
3627;SDS011;1830;49.000;12.074;2023-04-24T13:30:18;3.20;;;2.03;;
3627;SDS011;1830;49.000;12.074;2023-04-24T13:32:45;5.30;;;2.30;;
3627;SDS011;1830;49.000;12.074;2023-04-24T13:35:11;2.00;;;1.90;;
3627;SDS011;1830;49.000;12.074;2023-04-24T13:37:38;6.20;;;2.17;;
3627;SDS011;1830;49.000;12.074;2023-04-24T13:40:05;2.10;;;2.00;;
3627;SDS011;1830;49.000;12.074;2023-04-24T13:42:33;4.10;;;2.73;;
3627;SDS011;1830;49.000;12.074;2023-04-24T13:45:00;2.63;;;1.80;;
3627;SDS011;1830;49.000;12.074;2023-04-24T13:47:28;2.63;;;1.87;;
3627;SDS011;1830;49.000;12.074;2023-04-24T13:49:55;2.20;;;2.10;;
3627;SDS011;1830;49.000;12.074;2023-04-24T13:52:21;1.87;;;1.77;;
3627;SDS011;1830;49.000;12.074;2023-04-24T13:54:48;1.90;;;1.80;;
3627;SDS011;1830;49.000;12.074;2023-04-24T13:57:15;2.20;;;2.10;;
3627;SDS011;1830;49.000;12.074;2023-04-24T13:59:42;3.20;;;3.00;;
3627;SDS011;1830;49.000;12.074;2023-04-24T14:02:10;2.40;;;2.30;;
3627;SDS011;1830;49.000;12.074;2023-04-24T14:04:38;1.97;;;1.87;;
3627;SDS011;1830;49.000;12.074;2023-04-24T14:07:05;2.60;;;2.40;;
3627;SDS011;1830;49.000;12.074;2023-04-24T14:09:33;6.03;;;2.37;;
3627;SDS011;1830;49.000;12.074;2023-04-24T14:11:59;2.20;;;2.10;;
3627;SDS011;1830;49.000;12.074;2023-04-24T14:14:28;4.00;;;2.30;;
3627;SDS011;1830;49.000;12.074;2023-04-24T14:16:55;2.77;;;2.30;;
3627;SDS011;1830;49.000;12.074;2023-04-24T14:19:22;2.77;;;2.53;;
3627;SDS011;1830;49.000;12.074;2023-04-24T14:21:50;5.20;;;3.73;;
3627;SDS011;1830;49.000;12.074;2023-04-24T14:24:17;2.77;;;2.57;;
3627;SDS011;1830;49.000;12.074;2023-04-24T14:26:44;6.43;;;2.47;;
3627;SDS011;1830;49.000;12.074;2023-04-24T14:29:11;2.17;;;2.00;;
3627;SDS011;1830;49.000;12.074;2023-04-24T14:31:38;2.00;;;1.90;;
3627;SDS011;1830;49.000;12.074;2023-04-24T14:34:05;3.43;;;2.20;;
3627;SDS011;1830;49.000;12.074;2023-04-24T14:36:32;2.20;;;2.10;;
3627;SDS011;1830;49.000;12.074;2023-04-24T14:39:00;3.17;;;2.63;;
3627;SDS011;1830;49.000;12.074;2023-04-24T14:41:30;2.00;;;1.90;;
3627;SDS011;1830;49.000;12.074;2023-04-24T14:44:00;2.30;;;2.20;;
3627;SDS011;1830;49.000;12.074;2023-04-24T14:46:27;2.43;;;2.33;;
3627;SDS011;1830;49.000;12.074;2023-04-24T14:48:54;2.50;;;2.30;;
3627;SDS011;1830;49.000;12.074;2023-04-24T14:51:20;3.53;;;2.70;;
3627;SDS011;1830;49.000;12.074;2023-04-24T14:53:47;2.23;;;2.10;;
3627;SDS011;1830;49.000;12.074;2023-04-24T14:56:16;2.57;;;1.83;;
3627;SDS011;1830;49.000;12.074;2023-04-24T14:58:42;3.00;;;2.23;;
3627;SDS011;1830;49.000;12.074;2023-04-24T15:01:10;3.27;;;2.53;;
3627;SDS011;1830;49.000;12.074;2023-04-24T15:03:36;2.57;;;2.40;;